Time;durP1;ratioP1;P1;durP2;ratioP2;P2;SDS_P1;SDS_P2;PMS_P1;PMS_P2;Temp;Humidity;BMP_temperature;BMP_pressure;BME280_temperature;BME280_humidity;BME280_pressure;Samples;Min_cycle;Max_cycle;Signal;HPM_P1;HPM_P2
2022/03/30 00:01:22;;;;;;;24.03;15.70;;;11.70;99.90;;;;;;5059654;28;20463;-82
2022/03/30 00:03:48;;;;;;;26.73;15.23;;;11.70;99.90;;;;;;5075806;28;20420;-83
2022/03/30 00:06:14;;;;;;;34.33;15.93;;;11.70;99.90;;;;;;5074912;28;20171;-82
2022/03/30 00:08:42;;;;;;;33.13;16.33;;;11.70;99.90;;;;;;5074993;28;20177;-82
2022/03/30 00:11:08;;;;;;;27.60;15.47;;;11.70;99.90;;;;;;5075851;28;20213;-82
2022/03/30 00:13:35;;;;;;;29.40;16.20;;;11.70;99.90;;;;;;5075479;28;20444;-82
2022/03/30 00:16:04;;;;;;;26.53;15.23;;;11.70;99.90;;;;;;5075369;28;20938;-82
2022/03/30 00:18:30;;;;;;;22.30;13.77;;;11.60;99.90;;;;;;5075176;28;20408;-82
2022/03/30 00:20:56;;;;;;;31.60;16.80;;;11.60;99.90;;;;;;5075237;28;20440;-82
2022/03/30 00:23:22;;;;;;;28.13;15.67;;;11.50;99.90;;;;;;5075314;28;20959;-82
2022/03/30 00:25:47;;;;;;;28.00;15.20;;;11.50;99.90;;;;;;5075495;28;20177;-81
2022/03/30 00:28:13;;;;;;;29.07;15.80;;;11.60;99.90;;;;;;5075210;28;20178;-82
2022/03/30 00:30:39;;;;;;;29.80;16.13;;;11.50;99.90;;;;;;5075479;28;20732;-82
2022/03/30 00:33:05;;;;;;;24.10;13.27;;;11.50;99.90;;;;;;5074946;28;20424;-81
2022/03/30 00:35:31;;;;;;;28.80;15.60;;;11.60;99.90;;;;;;5075004;28;20189;-82
2022/03/30 00:37:57;;;;;;;30.90;17.23;;;11.50;99.90;;;;;;5074804;28;20189;-82
2022/03/30 00:40:23;;;;;;;31.80;15.50;;;11.40;99.90;;;;;;5074868;28;20247;-82
2022/03/30 00:42:49;;;;;;;28.80;15.30;;;11.40;99.90;;;;;;5074833;28;20225;-82
2022/03/30 00:45:19;;;;;;;26.20;14.30;;;11.40;99.90;;;;;;5074881;28;20412;-82
2022/03/30 00:47:45;;;;;;;31.40;16.37;;;11.40;99.90;;;;;;5074594;28;20217;-82
2022/03/30 00:50:15;;;;;;;28.47;16.40;;;11.40;99.90;;;;;;5074657;28;20861;-82
2022/03/30 00:52:42;;;;;;;31.07;15.27;;;11.30;99.90;;;;;;5074742;28;20515;-82
2022/03/30 00:55:09;;;;;;;22.70;12.87;;;11.30;99.90;;;;;;5075056;28;20423;-83
2022/03/30 00:57:37;;;;;;;25.13;13.93;;;11.30;99.90;;;;;;5074542;28;20516;-82
2022/03/30 01:00:05;;;;;;;27.17;15.43;;;11.40;99.90;;;;;;5074665;28;20412;-82
2022/03/30 01:02:31;;;;;;;29.40;15.40;;;11.30;99.90;;;;;;5074572;28;20456;-82
2022/03/30 01:04:57;;;;;;;26.60;15.20;;;11.30;99.90;;;;;;5074679;28;20450;-82
2022/03/30 01:07:25;;;;;;;22.93;13.10;;;11.20;99.90;;;;;;5074132;28;20497;-82
2022/03/30 01:09:51;;;;;;;31.40;16.60;;;11.20;99.90;;;;;;5074505;28;20877;-82
2022/03/30 01:12:17;;;;;;;27.50;15.57;;;11.20;99.90;;;;;;5074478;28;20521;-82
2022/03/30 01:14:43;;;;;;;23.93;14.63;;;11.20;99.90;;;;;;5074469;28;20218;-82
2022/03/30 01:17:09;;;;;;;25.37;14.20;;;11.10;99.90;;;;;;5073976;28;20456;-82
2022/03/30 01:19:34;;;;;;;27.80;15.87;;;11.20;99.90;;;;;;5074076;28;20506;-82
2022/03/30 01:22:00;;;;;;;27.90;14.80;;;11.10;99.90;;;;;;5074140;28;20205;-82
2022/03/30 01:24:26;;;;;;;28.10;14.60;;;11.20;99.90;;;;;;5074265;28;20330;-82
2022/03/30 01:26:52;;;;;;;28.67;13.77;;;11.30;99.90;;;;;;5073893;28;20420;-82
2022/03/30 01:34:48;;;;;;;27.37;15.40;;;11.20;99.90;;;;;;5092671;28;20432;-82
2022/03/30 01:37:14;;;;;;;24.27;14.60;;;11.10;99.90;;;;;;5073799;28;20925;-82
2022/03/30 01:39:40;;;;;;;28.43;13.70;;;11.00;99.90;;;;;;5073965;28;20431;-82
2022/03/30 01:42:07;;;;;;;25.30;13.13;;;11.10;99.90;;;;;;5073836;28;20476;-82
2022/03/30 01:44:34;;;;;;;27.50;13.87;;;11.20;99.90;;;;;;5073885;28;20413;-83
2022/03/30 01:47:00;;;;;;;30.27;15.77;;;11.20;99.90;;;;;;5073632;28;20461;-82
2022/03/30 01:49:25;;;;;;;27.83;13.60;;;11.20;99.90;;;;;;5073882;28;20454;-81
2022/03/30 01:51:53;;;;;;;28.60;14.70;;;11.10;99.90;;;;;;5073862;28;20195;-82
2022/03/30 01:54:21;;;;;;;23.37;14.53;;;11.10;99.90;;;;;;5073856;28;20553;-82
2022/03/30 01:56:47;;;;;;;26.50;14.10;;;11.10;99.90;;;;;;5073689;28;20809;-82
2022/03/30 01:59:14;;;;;;;23.60;14.07;;;11.00;99.90;;;;;;5073754;28;20424;-82
2022/03/30 02:01:41;;;;;;;21.97;13.47;;;11.00;99.90;;;;;;5073705;28;20551;-82
2022/03/30 02:04:07;;;;;;;29.60;16.23;;;11.00;99.90;;;;;;5073716;28;20416;-82
2022/03/30 02:06:33;;;;;;;24.97;13.77;;;11.00;99.90;;;;;;5073473;28;20412;-82
2022/03/30 02:08:59;;;;;;;22.93;12.40;;;11.10;99.90;;;;;;5073836;28;20405;-82
2022/03/30 02:11:26;;;;;;;22.37;13.50;;;11.00;99.90;;;;;;5073576;28;20444;-82
2022/03/30 02:13:52;;;;;;;30.17;14.57;;;11.10;99.90;;;;;;5073729;28;20448;-82
2022/03/30 02:16:19;;;;;;;25.73;14.93;;;11.10;99.90;;;;;;5073485;28;20423;-82
2022/03/30 02:18:45;;;;;;;23.90;15.23;;;11.10;99.90;;;;;;5073600;28;20804;-82
2022/03/30 02:21:11;;;;;;;25.30;14.07;;;11.10;99.90;;;;;;5073483;28;20501;-82
2022/03/30 02:23:38;;;;;;;21.10;13.10;;;11.10;99.90;;;;;;5073638;28;20408;-82
2022/03/30 02:26:03;;;;;;;22.13;12.63;;;11.10;99.90;;;;;;5073524;28;20170;-82
2022/03/30 02:28:29;;;;;;;21.63;12.87;;;11.10;99.90;;;;;;5073382;28;20419;-82
2022/03/30 02:30:55;;;;;;;20.53;13.63;;;11.10;99.90;;;;;;5075767;28;20628;-82
2022/03/30 02:33:21;;;;;;;27.27;13.93;;;11.00;99.90;;;;;;5077337;28;20178;-82
2022/03/30 02:35:46;;;;;;;24.57;14.03;;;10.90;99.90;;;;;;5077371;28;20511;-82
2022/03/30 02:38:12;;;;;;;23.70;14.33;;;10.80;99.90;;;;;;5077191;28;20192;-82
2022/03/30 02:40:38;;;;;;;24.57;13.77;;;10.80;99.90;;;;;;5077295;28;20742;-82
2022/03/30 02:43:03;;;;;;;26.50;14.10;;;10.90;99.90;;;;;;5076758;28;20740;-82
2022/03/30 02:45:30;;;;;;;23.90;14.90;;;10.80;99.90;;;;;;5077059;28;20185;-82
2022/03/30 02:50:40;;;;;;;26.30;14.70;;;10.80;99.90;;;;;;5068189;28;20415;-68
2022/03/30 02:53:06;;;;;;;27.10;14.10;;;10.70;99.90;;;;;;5056716;28;20520;-68
2022/03/30 02:55:32;;;;;;;28.73;15.00;;;10.70;99.90;;;;;;5056619;28;20508;-68
2022/03/30 02:57:58;;;;;;;26.93;13.53;;;10.60;99.90;;;;;;5056718;28;20552;-68
2022/03/30 03:00:23;;;;;;;22.77;13.00;;;10.60;99.90;;;;;;5056874;28;20187;-68
2022/03/30 03:02:49;;;;;;;31.53;15.43;;;10.50;99.90;;;;;;5056849;28;20288;-68
2022/03/30 03:05:15;;;;;;;25.27;14.57;;;10.50;99.90;;;;;;5053644;28;20223;-68
2022/03/30 03:07:41;;;;;;;27.90;14.40;;;10.40;99.90;;;;;;5049431;28;20443;-68
2022/03/30 03:10:07;;;;;;;25.13;13.87;;;10.40;99.90;;;;;;5056313;28;20189;-68
2022/03/30 03:12:33;;;;;;;25.73;14.63;;;10.40;99.90;;;;;;5056431;28;20425;-68
2022/03/30 03:14:58;;;;;;;24.77;14.90;;;10.30;99.90;;;;;;5056521;28;20179;-68
2022/03/30 03:17:24;;;;;;;29.37;15.60;;;10.20;99.90;;;;;;5056547;28;20264;-68
2022/03/30 03:19:50;;;;;;;31.47;16.07;;;10.10;99.90;;;;;;5056397;28;20231;-68
2022/03/30 03:22:15;;;;;;;25.23;16.27;;;9.90;99.90;;;;;;5056596;28;20232;-68
2022/03/30 03:24:41;;;;;;;25.23;13.60;;;9.80;99.90;;;;;;5056315;28;20175;-68
2022/03/30 03:27:10;;;;;;;24.47;14.20;;;9.60;99.90;;;;;;5056002;28;20682;-68
2022/03/30 03:29:36;;;;;;;27.10;15.20;;;9.50;99.90;;;;;;5056285;28;20592;-68
2022/03/30 03:32:02;;;;;;;29.60;14.60;;;9.50;99.90;;;;;;5055923;28;20515;-68
2022/03/30 03:34:27;;;;;;;23.50;13.10;;;9.50;99.90;;;;;;5056074;28;20201;-68
2022/03/30 03:36:53;;;;;;;30.70;15.67;;;9.50;99.90;;;;;;5055843;28;20237;-68
2022/03/30 03:39:19;;;;;;;31.60;15.30;;;9.50;99.90;;;;;;5056256;28;20186;-68
2022/03/30 03:41:44;;;;;;;27.10;14.10;;;9.50;99.90;;;;;;5055614;28;20210;-67
2022/03/30 03:44:10;;;;;;;25.37;13.37;;;9.50;99.90;;;;;;5056086;28;20210;-68
2022/03/30 03:46:36;;;;;;;28.87;14.73;;;9.50;99.90;;;;;;5055362;28;20195;-68
2022/03/30 03:49:02;;;;;;;27.27;14.07;;;9.50;99.90;;;;;;5056000;28;20685;-68
2022/03/30 03:51:28;;;;;;;25.07;13.77;;;9.50;99.90;;;;;;5055797;28;20457;-68
2022/03/30 03:53:54;;;;;;;24.70;14.60;;;9.60;99.90;;;;;;5055764;28;20418;-68
2022/03/30 03:56:21;;;;;;;26.77;13.80;;;9.50;99.90;;;;;;5055680;28;20972;-68
2022/03/30 03:58:49;;;;;;;24.77;14.03;;;9.60;99.90;;;;;;5055573;28;20416;-68
2022/03/30 04:01:15;;;;;;;24.50;13.53;;;9.70;99.90;;;;;;5055635;28;20436;-68
2022/03/30 04:03:42;;;;;;;32.30;16.37;;;9.70;99.90;;;;;;5055713;28;20957;-68
2022/03/30 04:06:09;;;;;;;26.47;14.80;;;9.70;99.90;;;;;;5055596;28;20508;-68
2022/03/30 04:08:35;;;;;;;26.70;14.20;;;9.70;99.90;;;;;;5055237;28;20441;-68
2022/03/30 04:11:01;;;;;;;25.70;13.80;;;9.70;99.90;;;;;;5055541;28;20935;-68
2022/03/30 04:13:27;;;;;;;27.10;14.87;;;9.90;99.90;;;;;;5055407;28;20505;-67
2022/03/30 04:15:53;;;;;;;26.33;13.80;;;9.80;99.90;;;;;;5055342;28;20190;-67
2022/03/30 04:18:19;;;;;;;24.23;14.10;;;9.90;99.90;;;;;;5055020;28;20204;-68
2022/03/30 04:20:45;;;;;;;22.70;13.20;;;9.80;99.90;;;;;;5055410;28;20790;-68
2022/03/30 04:23:11;;;;;;;22.93;13.87;;;9.70;99.90;;;;;;5055007;28;20466;-68
2022/03/30 04:25:37;;;;;;;24.07;13.87;;;9.80;99.90;;;;;;5055245;28;20178;-68
2022/03/30 04:28:03;;;;;;;21.47;13.43;;;9.90;99.90;;;;;;5054926;28;20487;-68
2022/03/30 04:30:30;;;;;;;25.97;13.77;;;9.80;99.90;;;;;;5054870;28;20478;-67
2022/03/30 04:32:55;;;;;;;27.27;14.63;;;9.70;99.90;;;;;;5055015;28;20446;-68
2022/03/30 04:35:27;;;;;;;28.87;15.20;;;9.80;99.90;;;;;;5054902;28;20460;-68
2022/03/30 04:37:54;;;;;;;25.70;14.60;;;9.60;99.90;;;;;;5054814;28;20445;-68
2022/03/30 04:40:22;;;;;;;29.30;14.30;;;9.60;99.90;;;;;;5051319;28;20903;-67
2022/03/30 04:42:49;;;;;;;25.97;14.13;;;9.50;99.90;;;;;;5048824;28;20822;-68
2022/03/30 04:45:15;;;;;;;30.30;14.60;;;9.50;99.90;;;;;;5054524;28;20908;-68
2022/03/30 04:47:41;;;;;;;26.57;14.80;;;9.40;99.90;;;;;;5054309;28;21005;-68
2022/03/30 04:50:09;;;;;;;28.17;14.10;;;9.30;99.90;;;;;;5054268;28;20420;-68
2022/03/30 04:52:36;;;;;;;26.93;15.07;;;9.40;99.90;;;;;;5054072;28;20183;-68
2022/03/30 04:55:02;;;;;;;26.87;13.90;;;9.30;99.90;;;;;;5054678;28;20422;-68
2022/03/30 04:57:28;;;;;;;28.70;13.10;;;9.30;99.90;;;;;;5054165;28;20446;-68
2022/03/30 04:59:53;;;;;;;26.03;14.67;;;9.30;99.90;;;;;;5054873;28;20413;-68
2022/03/30 05:02:20;;;;;;;22.30;13.40;;;9.20;99.90;;;;;;5054414;28;20578;-67
2022/03/30 05:04:45;;;;;;;23.77;12.50;;;9.20;99.90;;;;;;5054398;28;20182;-68
2022/03/30 05:07:13;;;;;;;24.73;14.73;;;9.20;99.90;;;;;;5054193;28;20437;-68
2022/03/30 05:09:38;;;;;;;25.00;15.03;;;9.20;99.90;;;;;;5054470;28;20171;-67
2022/03/30 05:12:04;;;;;;;26.03;14.83;;;9.10;99.90;;;;;;5054230;28;20437;-68
2022/03/30 05:14:30;;;;;;;22.53;13.07;;;9.10;99.90;;;;;;5054160;28;20171;-68
2022/03/30 05:16:56;;;;;;;28.20;15.30;;;9.10;99.90;;;;;;5053926;28;20459;-68
2022/03/30 05:19:22;;;;;;;28.67;14.27;;;9.00;99.90;;;;;;5054088;28;20185;-68
2022/03/30 05:21:48;;;;;;;27.20;12.47;;;;;;;;;;5054140;28;20213;-67
2022/03/30 05:24:14;;;;;;;28.13;14.43;;;8.90;99.90;;;;;;5054096;28;20182;-68
2022/03/30 05:26:39;;;;;;;26.70;14.70;;;8.80;99.90;;;;;;5053845;28;20812;-68
2022/03/30 05:29:05;;;;;;;24.13;12.43;;;8.70;99.90;;;;;;5053305;28;20175;-68
2022/03/30 05:31:31;;;;;;;27.10;12.50;;;8.60;99.90;;;;;;5053305;28;20190;-68
2022/03/30 05:33:57;;;;;;;24.83;12.87;;;8.50;99.90;;;;;;5053718;28;20558;-68
2022/03/30 05:36:23;;;;;;;27.50;13.60;;;8.60;99.90;;;;;;5053606;28;20221;-68
2022/03/30 05:38:50;;;;;;;23.60;13.77;;;8.60;99.90;;;;;;5053775;28;20183;-67
2022/03/30 05:41:17;;;;;;;31.37;14.73;;;8.60;99.90;;;;;;5053818;28;20194;-68
2022/03/30 05:43:43;;;;;;;27.40;14.30;;;8.60;99.90;;;;;;5053741;28;20460;-68
2022/03/30 05:46:09;;;;;;;26.93;14.90;;;8.60;99.90;;;;;;5053532;28;20467;-68
2022/03/30 05:48:36;;;;;;;22.77;13.13;;;8.70;99.90;;;;;;5053474;28;20449;-68
2022/03/30 05:51:01;;;;;;;25.20;12.63;;;8.70;99.90;;;;;;5053761;28;20425;-67
2022/03/30 05:53:27;;;;;;;36.23;15.80;;;8.70;99.90;;;;;;5053737;28;20428;-67
2022/03/30 05:55:55;;;;;;;26.33;14.20;;;8.70;99.90;;;;;;5049632;28;20207;-68
2022/03/30 05:58:21;;;;;;;22.20;13.30;;;8.80;99.90;;;;;;5049094;28;20743;-68
2022/03/30 06:00:48;;;;;;;23.77;13.57;;;8.80;99.90;;;;;;5049466;28;20448;-69
2022/03/30 06:03:14;;;;;;;22.47;14.17;;;8.80;99.90;;;;;;5053194;28;20457;-68
2022/03/30 06:05:40;;;;;;;27.00;13.27;;;8.90;99.90;;;;;;5057032;28;20410;-68
2022/03/30 06:08:07;;;;;;;25.07;13.30;;;8.90;99.90;;;;;;5057541;28;20455;-68
2022/03/30 06:10:33;;;;;;;28.20;15.50;;;9.00;99.90;;;;;;5057981;28;21001;-68
2022/03/30 06:13:00;;;;;;;27.70;14.57;;;8.90;99.90;;;;;;5057761;28;20433;-68
2022/03/30 06:15:26;;;;;;;21.90;12.40;;;9.00;99.90;;;;;;5057596;28;20433;-68
2022/03/30 06:17:54;;;;;;;22.37;13.17;;;8.90;99.90;;;;;;5057178;28;20602;-68
2022/03/30 06:20:21;;;;;;;28.07;14.10;;;8.90;99.90;;;;;;5057546;28;20429;-68
2022/03/30 06:22:47;;;;;;;29.20;13.63;;;8.90;99.90;;;;;;5057647;28;20461;-68
2022/03/30 06:25:14;;;;;;;30.93;14.97;;;9.00;99.90;;;;;;5058223;28;20425;-69
2022/03/30 06:27:41;;;;;;;29.93;14.30;;;9.10;99.90;;;;;;5057524;28;20225;-69
2022/03/30 06:30:09;;;;;;;24.63;13.80;;;9.10;99.90;;;;;;5057486;28;20421;-68
2022/03/30 06:32:35;;;;;;;22.60;13.80;;;9.10;99.90;;;;;;5057402;28;20748;-68
2022/03/30 06:35:05;;;;;;;21.90;13.07;;;9.20;99.90;;;;;;5057497;28;20421;-69
2022/03/30 06:37:31;;;;;;;29.57;14.43;;;9.30;99.90;;;;;;5057230;28;20202;-68
2022/03/30 06:39:57;;;;;;;28.00;14.20;;;9.40;99.90;;;;;;5057454;28;20425;-68
2022/03/30 06:42:23;;;;;;;22.33;13.80;;;9.50;99.90;;;;;;5057251;28;20457;-68
2022/03/30 06:44:49;;;;;;;24.93;13.67;;;9.80;99.90;;;;;;5057358;28;20876;-68
2022/03/30 06:47:16;;;;;;;21.20;13.47;;;10.00;99.90;;;;;;5057018;28;20540;-69
2022/03/30 06:49:42;;;;;;;24.03;13.67;;;10.20;99.90;;;;;;5057760;28;20420;-69
2022/03/30 06:52:10;;;;;;;23.27;11.83;;;10.40;99.90;;;;;;5057512;28;20437;-69
2022/03/30 06:54:38;;;;;;;26.47;14.77;;;10.30;99.90;;;;;;5057812;28;20543;-69
2022/03/30 06:57:05;;;;;;;33.67;15.27;;;10.30;99.90;;;;;;5057399;28;20441;-69
2022/03/30 06:59:31;;;;;;;29.63;13.87;;;10.40;99.90;;;;;;5057388;28;20470;-69
2022/03/30 07:01:58;;;;;;;25.17;13.77;;;10.30;99.90;;;;;;5057361;28;20474;-68
2022/03/30 07:04:24;;;;;;;28.17;14.07;;;10.20;99.90;;;;;;5057347;28;20641;-69
2022/03/30 07:12:19;;;;;;;26.67;14.17;;;10.30;99.90;;;;;;5075218;28;20513;-68
2022/03/30 07:14:47;;;;;;;25.70;14.40;;;10.30;99.90;;;;;;5056862;28;20512;-68
2022/03/30 07:17:13;;;;;;;29.30;13.60;;;10.30;99.90;;;;;;5055992;28;20211;-69
2022/03/30 07:19:40;;;;;;;26.53;14.30;;;10.60;99.90;;;;;;5056785;28;20424;-69
2022/03/30 07:22:09;;;;;;;26.47;14.13;;;10.80;99.90;;;;;;5056605;28;20846;-69
2022/03/30 07:24:35;;;;;;;23.47;13.97;;;10.80;99.90;;;;;;5056807;28;20892;-69
2022/03/30 07:27:01;;;;;;;28.87;14.07;;;11.10;99.90;;;;;;5050054;28;20457;-69
2022/03/30 07:29:27;;;;;;;24.47;12.13;;;11.30;99.90;;;;;;5045131;28;20472;-69
2022/03/30 07:31:53;;;;;;;36.67;15.43;;;11.70;99.90;;;;;;5043146;28;20460;-69
2022/03/30 07:34:19;;;;;;;26.23;14.00;;;11.70;99.90;;;;;;5047455;28;20194;-69
2022/03/30 07:36:44;;;;;;;26.97;14.57;;;12.10;99.90;;;;;;5051633;28;20547;-68
2022/03/30 07:39:10;;;;;;;26.47;14.30;;;12.10;99.90;;;;;;5056175;28;20191;-68
2022/03/30 07:41:36;;;;;;;19.17;11.80;;;12.00;99.90;;;;;;5055770;28;20245;-69
2022/03/30 07:44:03;;;;;;;25.67;13.57;;;12.10;99.90;;;;;;5056467;28;20186;-69
2022/03/30 07:46:29;;;;;;;22.63;12.90;;;12.10;99.90;;;;;;5056370;28;20175;-69
2022/03/30 07:48:54;;;;;;;21.23;12.37;;;12.10;99.90;;;;;;5056311;28;20437;-69
2022/03/30 07:51:20;;;;;;;28.07;14.03;;;12.30;99.90;;;;;;5056426;28;20236;-69
2022/03/30 07:53:46;;;;;;;32.57;13.83;;;12.50;99.90;;;;;;5056363;28;20249;-69
2022/03/30 07:56:12;;;;;;;28.17;14.60;;;12.70;99.90;;;;;;5056205;28;20561;-69
2022/03/30 07:58:37;;;;;;;24.10;13.77;;;12.90;99.90;;;;;;5056172;28;20553;-69
2022/03/30 08:01:03;;;;;;;26.93;13.00;;;13.20;99.90;;;;;;5056361;28;20808;-69
2022/03/30 08:03:29;;;;;;;29.10;13.97;;;13.30;99.90;;;;;;5056469;28;20221;-69
2022/03/30 08:05:55;;;;;;;20.10;12.10;;;13.30;99.90;;;;;;5055485;28;20175;-69
2022/03/30 08:08:20;;;;;;;23.97;14.40;;;13.30;99.90;;;;;;5051214;28;20207;-68
2022/03/30 08:10:46;;;;;;;22.57;13.17;;;13.40;99.90;;;;;;5055994;28;20175;-69
2022/03/30 08:13:12;;;;;;;23.23;13.47;;;13.40;99.90;;;;;;5055692;28;20187;-68
2022/03/30 08:15:39;;;;;;;22.67;12.43;;;13.00;99.90;;;;;;5056141;28;20294;-68
2022/03/30 08:18:07;;;;;;;20.57;11.53;;;13.00;99.90;;;;;;5055634;28;20448;-68
2022/03/30 08:23:18;;;;;;;18.10;11.33;;;13.20;99.90;;;;;;5073892;28;20472;-69
2022/03/30 08:25:45;;;;;;;22.90;13.47;;;13.30;99.90;;;;;;5056098;28;20551;-69
2022/03/30 08:28:11;;;;;;;23.60;12.60;;;13.30;99.90;;;;;;5054593;28;20456;-69
2022/03/30 08:30:37;;;;;;;21.80;12.47;;;13.30;99.90;;;;;;5056270;28;20421;-69
2022/03/30 08:33:04;;;;;;;21.17;13.47;;;13.30;99.90;;;;;;5056128;28;20428;-69
2022/03/30 08:35:31;;;;;;;21.17;12.40;;;13.30;99.90;;;;;;5055963;28;20448;-68
2022/03/30 08:37:57;;;;;;;18.73;11.77;;;13.30;99.90;;;;;;5052127;28;21097;-68
2022/03/30 08:40:23;;;;;;;17.53;10.70;;;13.40;99.90;;;;;;5054161;28;20461;-68
2022/03/30 08:42:49;;;;;;;21.10;10.87;;;13.40;99.90;;;;;;5055475;28;20496;-69
2022/03/30 08:45:19;;;;;;;17.70;11.17;;;13.60;99.90;;;;;;5055490;28;20923;-68
2022/03/30 08:47:47;;;;;;;18.67;12.30;;;13.90;99.90;;;;;;5069908;22;20504;-67
2022/03/30 08:50:12;;;;;;;20.60;11.80;;;14.10;99.90;;;;;;5081409;28;20435;-66
2022/03/30 08:52:38;;;;;;;16.10;10.70;;;14.10;99.90;;;;;;5082881;28;20507;-64
2022/03/30 08:55:05;;;;;;;19.90;11.17;;;14.10;99.90;;;;;;5087887;28;20185;-64
2022/03/30 08:57:31;;;;;;;17.07;10.33;;;14.30;99.90;;;;;;5091154;28;20578;-64
2022/03/30 09:00:12;;;;;;;16.43;10.47;;;14.40;99.90;;;;;;5091552;28;20416;-64
2022/03/30 09:02:41;;;;;;;18.50;10.30;;;14.60;99.90;;;;;;5091316;28;20220;-64
2022/03/30 09:05:16;;;;;;;17.87;10.63;;;14.60;99.90;;;;;;5091434;28;20417;-64
2022/03/30 09:07:44;;;;;;;16.03;9.80;;;14.70;99.90;;;;;;5091079;28;20424;-64
2022/03/30 09:10:15;;;;;;;22.03;11.30;;;15.00;99.90;;;;;;5091360;28;20420;-65
2022/03/30 09:12:43;;;;;;;19.93;10.90;;;15.10;99.90;;;;;;5091044;28;20511;-64
2022/03/30 09:15:09;;;;;;;17.93;10.10;;;15.20;99.90;;;;;;5091273;28;20416;-64
2022/03/30 09:17:41;;;;;;;18.50;10.13;;;15.40;99.90;;;;;;5091007;28;20811;-64
2022/03/30 09:20:12;;;;;;;17.67;8.83;;;15.70;99.90;;;;;;5091185;28;20976;-64
2022/03/30 09:22:42;;;;;;;15.00;10.30;;;16.30;99.90;;;;;;5091172;28;20821;-64
2022/03/30 09:25:09;;;;;;;17.33;10.20;;;17.50;99.90;;;;;;5091265;28;20412;-64
2022/03/30 09:27:39;;;;;;;19.33;10.90;;;18.60;96.90;;;;;;5090789;28;20436;-64
2022/03/30 09:30:06;;;;;;;15.83;10.93;;;20.10;92.70;;;;;;5090828;28;20786;-65
2022/03/30 09:32:32;;;;;;;14.67;9.93;;;21.50;82.90;;;;;;5090973;28;20421;-65
2022/03/30 09:34:58;;;;;;;15.47;10.27;;;23.00;73.90;;;;;;5090901;28;20416;-65
2022/03/30 09:37:24;;;;;;;17.90;10.87;;;24.00;62.40;;;;;;5090731;28;20202;-65
2022/03/30 09:39:50;;;;;;;17.70;10.50;;;24.70;57.60;;;;;;5090480;28;20190;-64
2022/03/30 09:42:18;;;;;;;14.13;9.77;;;24.90;54.00;;;;;;5090832;28;20557;-65
2022/03/30 09:44:45;;;;;;;15.10;10.33;;;25.60;53.20;;;;;;5091396;28;20427;-65
2022/03/30 09:47:11;;;;;;;16.93;9.80;;;26.50;50.70;;;;;;5090521;28;21013;-65
2022/03/30 09:49:44;;;;;;;13.70;10.50;;;27.00;48.00;;;;;;5090765;28;20523;-65
2022/03/30 09:52:22;;;;;;;15.60;10.00;;;27.40;46.90;;;;;;5090695;28;20236;-64
2022/03/30 09:54:53;;;;;;;13.63;9.57;;;28.10;45.40;;;;;;5065363;28;20856;-65
2022/03/30 09:57:22;;;;;;;14.20;9.60;;;27.40;42.00;;;;;;5063208;28;20970;-65
2022/03/30 10:00:12;;;;;;;11.30;8.43;;;26.70;42.60;;;;;;5053379;28;20409;-64
2022/03/30 10:02:49;;;;;;;13.30;9.23;;;26.00;42.30;;;;;;5053356;28;20525;-64
2022/03/30 10:05:18;;;;;;;16.70;10.60;;;25.70;42.90;;;;;;5053385;28;20792;-64
2022/03/30 10:07:47;;;;;;;14.57;9.43;;;26.10;43.00;;;;;;5053352;28;20446;-64
2022/03/30 10:10:17;;;;;;;11.57;8.90;;;26.30;41.90;;;;;;5053240;28;20431;-64
2022/03/30 10:12:42;;;;;;;12.90;8.70;;;27.50;42.50;;;;;;5053467;28;20437;-64
2022/03/30 10:15:10;;;;;;;12.10;9.03;;;27.50;40.50;;;;;;5053840;28;20424;-64
2022/03/30 10:17:36;;;;;;;12.50;8.37;;;27.80;39.80;;;;;;5053090;28;20739;-64
2022/03/30 10:20:04;;;;;;;11.40;7.73;;;28.70;38.20;;;;;;5053542;28;20922;-65
2022/03/30 10:22:45;;;;;;;11.90;8.17;;;29.50;37.50;;;;;;5053333;28;20452;-64
2022/03/30 10:25:43;;;;;;;12.93;9.50;;;29.50;35.60;;;;;;5053459;28;20504;-64
2022/03/30 10:28:13;;;;;;;12.73;8.43;;;30.50;36.00;;;;;;5053173;28;20437;-64
2022/03/30 10:30:43;;;;;;;11.57;9.03;;;31.00;36.10;;;;;;5053519;28;20417;-64
2022/03/30 10:33:10;;;;;;;14.27;9.20;;;31.20;34.50;;;;;;5053340;28;20490;-65
2022/03/30 10:35:40;;;;;;;12.73;8.90;;;32.40;34.30;;;;;;5053342;28;20421;-64
2022/03/30 10:38:07;;;;;;;12.57;9.13;;;32.80;32.40;;;;;;5052904;28;20841;-65
2022/03/30 10:40:34;;;;;;;13.53;8.93;;;33.50;32.80;;;;;;5053325;28;20421;-65
2022/03/30 10:43:05;;;;;;;12.40;8.73;;;34.10;31.10;;;;;;5053042;28;20464;-65
2022/03/30 10:45:36;;;;;;;13.90;9.67;;;34.60;30.50;;;;;;5053292;28;20487;-65
2022/03/30 10:48:19;;;;;;;15.00;9.30;;;34.50;29.60;;;;;;5054895;28;20504;-64
2022/03/30 10:50:45;;;;;;;12.30;8.97;;;34.40;29.60;;;;;;5080307;28;20507;-65
2022/03/30 10:53:29;;;;;;;12.20;8.90;;;33.60;29.10;;;;;;5085341;28;20869;-65
2022/03/30 10:56:15;;;;;;;11.73;8.77;;;32.20;29.40;;;;;;5093884;28;20205;-65
2022/03/30 10:58:53;;;;;;;13.87;10.00;;;31.90;30.00;;;;;;5093609;28;20412;-65
2022/03/30 11:01:25;;;;;;;12.17;9.53;;;32.00;30.20;;;;;;5093739;28;20435;-65
2022/03/30 11:04:10;;;;;;;12.93;9.57;;;32.30;30.00;;;;;;5093733;28;20428;-65
2022/03/30 11:06:38;;;;;;;14.07;9.33;;;32.20;29.20;;;;;;5093448;28;20444;-65
2022/03/30 11:09:32;;;;;;;12.17;8.13;;;32.50;29.70;;;;;;5093575;28;20416;-65
2022/03/30 11:12:18;;;;;;;12.33;8.37;;;32.30;29.70;;;;;;5093949;28;20431;-65
2022/03/30 11:15:00;;;;;;;11.37;8.77;;;32.00;29.30;;;;;;5093416;28;20501;-65
2022/03/30 11:17:40;;;;;;;12.97;8.40;;;32.60;29.90;;;;;;5093271;28;20436;-65
2022/03/30 11:20:08;;;;;;;11.97;8.73;;;31.80;29.20;;;;;;5093369;28;20499;-64
2022/03/30 11:22:41;;;;;;;11.57;8.07;;;30.70;29.70;;;;;;5093326;28;21016;-65
2022/03/30 11:25:24;;;;;;;12.60;8.00;;;27.90;29.80;;;;;;5093205;28;20425;-64
2022/03/30 11:28:01;;;;;;;11.13;7.57;;;27.80;32.50;;;;;;5093036;28;20440;-64
2022/03/30 11:30:31;;;;;;;11.50;8.47;;;28.70;32.40;;;;;;5093168;28;20499;-64
2022/03/30 11:33:04;;;;;;;11.17;7.63;;;29.30;31.50;;;;;;5084990;28;20455;-65
2022/03/30 11:35:39;;;;;;;11.83;8.97;;;28.80;30.00;;;;;;5078561;28;20416;-65
2022/03/30 11:38:05;;;;;;;13.17;8.70;;;29.00;31.40;;;;;;5080976;28;20902;-65
2022/03/30 11:40:35;;;;;;;11.37;8.87;;;29.60;32.30;;;;;;5086586;28;20512;-65
2022/03/30 11:43:01;;;;;;;11.67;8.07;;;29.90;31.40;;;;;;5088889;28;20205;-65
2022/03/30 11:45:29;;;;;;;12.67;8.60;;;30.00;30.80;;;;;;5092873;28;20417;-64
2022/03/30 11:48:00;;;;;;;10.03;7.40;;;29.60;31.10;;;;;;5092534;28;20820;-65
2022/03/30 11:50:33;;;;;;;8.30;7.40;;;30.30;31.80;;;;;;5092902;28;20424;-65
2022/03/30 11:53:04;;;;;;;10.80;8.07;;;31.00;30.00;;;;;;5092637;28;20942;-65
2022/03/30 11:55:32;;;;;;;12.67;9.40;;;31.80;31.50;;;;;;5092843;28;20767;-65
2022/03/30 11:58:00;;;;;;;12.93;8.83;;;33.00;30.10;;;;;;5092370;28;20464;-65
2022/03/30 12:00:28;;;;;;;12.30;8.70;;;33.80;30.20;;;;;;5092722;28;20416;-65
2022/03/30 12:02:59;;;;;;;11.77;8.17;;;34.80;29.70;;;;;;5092371;28;20534;-65
2022/03/30 12:05:25;;;;;;;11.43;8.03;;;34.90;28.60;;;;;;5073990;28;20708;-64
2022/03/30 12:07:57;;;;;;;9.13;7.30;;;34.60;29.10;;;;;;5068630;28;20476;-65
2022/03/30 12:10:33;;;;;;;11.13;8.23;;;34.40;28.80;;;;;;5075420;28;20412;-66
2022/03/30 12:13:00;;;;;;;11.30;8.07;;;33.50;27.90;;;;;;5075125;28;20463;-65
2022/03/30 12:15:27;;;;;;;9.67;8.10;;;32.00;28.90;;;;;;5075183;28;20424;-65
2022/03/30 12:17:59;;;;;;;11.50;8.83;;;30.90;29.70;;;;;;5075272;28;20440;-66
2022/03/30 12:20:28;;;;;;;10.43;7.70;;;30.10;30.40;;;;;;5074072;22;20549;-83
2022/03/30 12:23:02;;;;;;;10.07;7.60;;;30.20;30.80;;;;;;5068042;28;20482;-84
2022/03/30 12:25:37;;;;;;;10.93;8.23;;;29.90;29.00;;;;;;5073043;28;20398;-83
2022/03/30 12:28:04;;;;;;;11.20;7.50;;;31.30;29.90;;;;;;5073137;28;20471;-83
2022/03/30 12:30:36;;;;;;;10.93;8.07;;;32.00;29.30;;;;;;5073288;28;20805;-83
2022/03/30 12:33:02;;;;;;;13.57;9.10;;;31.60;29.00;;;;;;5073395;28;20401;-84
2022/03/30 12:35:37;;;;;;;11.17;8.00;;;32.40;29.30;;;;;;5072964;28;21002;-84
2022/03/30 12:38:14;;;;;;;9.23;7.27;;;32.10;28.40;;;;;;5072833;28;20429;-84
2022/03/30 12:40:42;;;;;;;8.07;6.50;;;33.20;28.80;;;;;;5072922;28;20820;-83
2022/03/30 12:43:09;;;;;;;11.17;8.17;;;33.70;28.60;;;;;;5055077;28;20535;-84
2022/03/30 12:45:54;;;;;;;8.40;7.00;;;33.80;28.00;;;;;;5072754;28;20406;-83
2022/03/30 12:48:25;;;;;;;9.50;7.13;;;34.40;27.60;;;;;;5072445;28;20989;-81
2022/03/30 12:50:51;;;;;;;8.80;7.20;;;34.20;26.10;;;;;;5072677;28;20455;-84
2022/03/30 12:53:17;;;;;;;10.50;6.80;;;33.10;25.20;;;;;;5069874;28;20434;-84